createdAt,value
2022-10-17T00:02:10.331Z,99.90
2022-10-17T00:04:37.076Z,99.90
2022-10-17T00:07:03.727Z,99.90
2022-10-17T00:09:30.375Z,99.90
2022-10-17T00:11:57.012Z,99.90
2022-10-17T00:14:23.652Z,99.90
2022-10-17T00:16:50.253Z,99.90
2022-10-17T00:19:16.901Z,99.90
2022-10-17T00:21:43.542Z,99.90
2022-10-17T00:24:10.190Z,99.90
2022-10-17T00:26:36.847Z,99.90
2022-10-17T00:29:03.589Z,99.90
2022-10-17T00:31:30.296Z,99.90
2022-10-17T00:33:56.933Z,99.90
2022-10-17T00:36:24.963Z,99.90
2022-10-17T00:38:53.452Z,99.90
2022-10-17T00:41:21.380Z,99.90
2022-10-17T00:43:49.192Z,99.90
2022-10-17T00:46:15.879Z,99.90
2022-10-17T00:48:43.260Z,99.90
2022-10-17T00:51:09.882Z,99.90
2022-10-17T00:53:37.224Z,99.90
2022-10-17T00:56:03.955Z,99.90
2022-10-17T00:58:30.640Z,99.90
2022-10-17T01:00:57.262Z,99.90
2022-10-17T01:03:24.040Z,99.90
2022-10-17T01:05:50.703Z,99.90
2022-10-17T01:08:17.319Z,99.90
2022-10-17T01:11:16.508Z,99.90
2022-10-17T01:13:46.826Z,99.90
2022-10-17T01:16:13.445Z,99.90
2022-10-17T01:18:44.550Z,99.90
2022-10-17T01:21:23.465Z,99.90
2022-10-17T01:24:05.391Z,99.90
2022-10-17T01:26:38.109Z,99.90
2022-10-17T01:29:07.715Z,99.90
2022-10-17T01:31:39.675Z,99.90
2022-10-17T01:34:12.814Z,99.90
2022-10-17T01:36:46.125Z,99.90
2022-10-17T01:39:34.438Z,99.90
2022-10-17T01:42:17.103Z,99.90
2022-10-17T01:44:54.076Z,99.90
2022-10-17T01:47:22.023Z,99.90
2022-10-17T01:49:50.409Z,99.90
2022-10-17T01:52:49.508Z,99.90
2022-10-17T01:55:21.368Z,99.90
2022-10-17T01:57:53.129Z,99.90
2022-10-17T02:00:22.244Z,99.90
2022-10-17T02:02:51.943Z,99.90
2022-10-17T02:05:20.328Z,99.90
2022-10-17T02:07:46.998Z,99.90
2022-10-17T02:10:19.225Z,99.90
2022-10-17T02:12:51.018Z,99.90
2022-10-17T02:15:26.847Z,99.90
2022-10-17T02:18:15.895Z,99.90
2022-10-17T02:20:53.932Z,99.90
2022-10-17T02:23:25.533Z,99.90
2022-10-17T02:25:57.611Z,99.90
2022-10-17T02:28:33.518Z,99.90
2022-10-17T02:31:17.730Z,99.90
2022-10-17T02:33:50.131Z,99.90
2022-10-17T02:36:22.031Z,99.90
2022-10-17T02:38:49.629Z,99.90
2022-10-17T02:41:17.698Z,99.90
2022-10-17T02:43:46.722Z,99.90
2022-10-17T02:46:20.836Z,99.90
2022-10-17T02:48:50.148Z,99.90
2022-10-17T02:51:29.143Z,99.90
2022-10-17T02:54:02.037Z,99.90
2022-10-17T02:56:31.086Z,99.90
2022-10-17T02:58:58.976Z,99.90
2022-10-17T03:01:26.201Z,99.90
2022-10-17T03:04:04.069Z,99.90
2022-10-17T03:06:30.767Z,99.90
2022-10-17T03:08:57.442Z,99.90
2022-10-17T03:11:24.048Z,99.90
2022-10-17T03:13:50.682Z,99.90
2022-10-17T03:16:17.286Z,99.90
2022-10-17T03:18:46.603Z,99.90
2022-10-17T03:21:16.064Z,99.90
2022-10-17T03:23:42.724Z,99.90
2022-10-17T03:26:09.352Z,99.90
2022-10-17T03:28:36.081Z,99.90
2022-10-17T03:31:10.083Z,99.90
2022-10-17T03:33:37.667Z,99.90
2022-10-17T03:36:11.533Z,99.90
2022-10-17T03:38:38.420Z,99.90
2022-10-17T03:41:06.015Z,99.90
2022-10-17T03:43:32.646Z,99.90
2022-10-17T03:45:59.729Z,99.90
2022-10-17T03:48:26.626Z,99.90
2022-10-17T03:50:58.077Z,99.90
2022-10-17T03:53:24.730Z,99.90
2022-10-17T03:55:51.361Z,99.90
2022-10-17T03:58:18.025Z,99.90
2022-10-17T04:00:44.741Z,99.90
2022-10-17T04:03:16.350Z,99.90
2022-10-17T04:05:43.969Z,99.90
2022-10-17T04:08:10.625Z,99.90
2022-10-17T04:10:37.366Z,99.90
2022-10-17T04:13:04.611Z,99.90
2022-10-17T04:15:31.200Z,99.90
2022-10-17T04:17:57.891Z,99.90
2022-10-17T04:20:24.531Z,99.90
2022-10-17T04:22:51.283Z,99.90
2022-10-17T04:25:17.976Z,99.90
2022-10-17T04:27:44.620Z,99.90
2022-10-17T04:30:11.323Z,99.90
2022-10-17T04:32:39.115Z,99.90
2022-10-17T04:35:05.905Z,99.90
2022-10-17T04:37:32.573Z,99.90
2022-10-17T04:39:59.206Z,99.90
2022-10-17T04:42:26.112Z,99.90
2022-10-17T04:44:52.816Z,99.90
2022-10-17T04:47:19.466Z,99.90
2022-10-17T04:49:46.440Z,99.90
2022-10-17T04:52:13.080Z,99.90
2022-10-17T04:54:39.688Z,99.90
2022-10-17T04:57:06.338Z,99.90
2022-10-17T04:59:32.964Z,99.90
2022-10-17T05:01:59.573Z,99.90
2022-10-17T05:04:27.028Z,99.90
2022-10-17T05:06:53.664Z,99.90
2022-10-17T05:09:20.268Z,99.90
2022-10-17T05:11:46.964Z,99.90
2022-10-17T05:14:13.590Z,99.90
2022-10-17T05:16:40.289Z,99.90
2022-10-17T05:19:07.034Z,99.90
2022-10-17T05:24:00.394Z,99.90
2022-10-17T05:26:27.035Z,99.90
2022-10-17T05:28:54.848Z,99.90
2022-10-17T05:31:21.644Z,99.90
2022-10-17T05:33:48.342Z,99.90
2022-10-17T05:36:15.196Z,99.90
2022-10-17T05:38:41.867Z,99.90
2022-10-17T05:41:09.540Z,99.90
2022-10-17T05:43:36.191Z,99.90
2022-10-17T05:46:03.968Z,99.90
2022-10-17T05:48:30.616Z,99.90
2022-10-17T05:50:58.320Z,99.90
2022-10-17T05:53:24.948Z,99.90
2022-10-17T05:55:58.663Z,99.90
2022-10-17T05:58:45.601Z,99.90
2022-10-17T06:01:12.944Z,99.90
2022-10-17T06:03:39.818Z,99.90
2022-10-17T06:06:08.187Z,99.90
2022-10-17T06:08:34.923Z,99.90
2022-10-17T06:11:04.907Z,99.90
2022-10-17T06:13:34.491Z,99.90
2022-10-17T06:16:01.199Z,99.90
2022-10-17T06:18:27.837Z,99.90
2022-10-17T06:20:54.561Z,99.90
2022-10-17T06:23:21.277Z,99.90
2022-10-17T06:25:48.030Z,99.90
2022-10-17T06:28:14.702Z,99.90
2022-10-17T06:30:41.603Z,99.90
2022-10-17T06:33:08.263Z,99.90
2022-10-17T06:35:34.959Z,99.90
2022-10-17T06:38:01.666Z,99.90
2022-10-17T06:40:28.424Z,99.90
2022-10-17T06:42:55.123Z,99.90
2022-10-17T06:45:21.775Z,99.90
2022-10-17T06:47:49.269Z,99.90
2022-10-17T06:50:16.014Z,99.90
2022-10-17T06:52:42.701Z,99.90
2022-10-17T06:55:09.485Z,99.90
2022-10-17T06:57:36.156Z,99.90
2022-10-17T07:00:04.232Z,99.90
2022-10-17T07:02:31.387Z,99.90
2022-10-17T07:04:58.409Z,99.90
2022-10-17T07:07:25.089Z,99.90
2022-10-17T07:09:51.778Z,99.90
2022-10-17T07:12:18.482Z,99.90
2022-10-17T07:14:47.225Z,99.90
2022-10-17T07:17:13.864Z,99.90
2022-10-17T07:19:40.515Z,99.90
2022-10-17T07:22:07.167Z,99.90
2022-10-17T07:24:33.817Z,99.90
2022-10-17T07:27:00.568Z,99.90
2022-10-17T07:29:27.337Z,99.90
2022-10-17T07:31:54.188Z,99.90
2022-10-17T07:34:20.936Z,99.90
2022-10-17T07:36:47.658Z,99.90
2022-10-17T07:39:14.329Z,99.90
2022-10-17T07:41:41.021Z,99.90
2022-10-17T07:44:07.690Z,99.90
2022-10-17T07:46:34.540Z,99.90
2022-10-17T07:49:01.436Z,99.90
2022-10-17T07:51:28.170Z,99.90
2022-10-17T07:53:54.838Z,99.90
2022-10-17T07:56:24.753Z,99.90
2022-10-17T07:58:52.228Z,99.90
2022-10-17T08:01:19.165Z,99.90
2022-10-17T08:03:46.316Z,99.90
2022-10-17T08:06:13.145Z,99.90
2022-10-17T08:08:40.176Z,99.90
2022-10-17T08:11:08.555Z,99.90
2022-10-17T08:13:35.635Z,99.90
2022-10-17T08:16:02.912Z,99.90
2022-10-17T08:18:29.631Z,99.90
2022-10-17T08:21:00.212Z,99.90
2022-10-17T08:23:27.559Z,99.90
2022-10-17T08:25:54.196Z,99.90
2022-10-17T08:28:20.869Z,99.90
2022-10-17T08:30:47.540Z,99.90
2022-10-17T08:33:15.147Z,99.90
2022-10-17T08:35:41.816Z,99.90
2022-10-17T08:38:11.039Z,99.90
2022-10-17T08:40:42.774Z,99.90
2022-10-17T08:43:15.664Z,99.90
2022-10-17T08:45:51.957Z,99.90
2022-10-17T08:48:19.806Z,99.90
2022-10-17T08:50:52.507Z,99.90
2022-10-17T08:53:22.398Z,99.90
2022-10-17T08:55:50.040Z,91.50
2022-10-17T08:58:24.437Z,71.60
2022-10-17T09:01:13.262Z,63.40
2022-10-17T09:03:52.362Z,59.20
2022-10-17T09:06:30.057Z,49.90
2022-10-17T09:09:15.063Z,48.20
2022-10-17T09:12:05.188Z,45.50
2022-10-17T09:14:50.626Z,43.30
2022-10-17T09:17:23.398Z,40.00
2022-10-17T09:19:57.378Z,38.10
2022-10-17T09:22:25.269Z,41.10
2022-10-17T09:24:59.919Z,42.80
2022-10-17T09:27:26.695Z,46.60
2022-10-17T09:29:59.720Z,48.90
2022-10-17T09:32:26.373Z,52.40
2022-10-17T09:34:53.440Z,55.20
2022-10-17T09:37:22.426Z,56.60
2022-10-17T09:39:49.136Z,59.50
2022-10-17T09:42:19.364Z,63.20
2022-10-17T09:44:47.492Z,63.20
2022-10-17T09:47:32.607Z,66.60
2022-10-17T09:49:59.230Z,69.70
2022-10-17T09:52:25.845Z,70.40
2022-10-17T09:55:11.154Z,72.40
2022-10-17T09:57:54.677Z,72.50
2022-10-17T10:00:23.296Z,74.20
2022-10-17T10:02:50.243Z,75.80
2022-10-17T10:05:21.007Z,75.60
2022-10-17T10:08:04.418Z,76.10
2022-10-17T10:10:32.023Z,77.00
2022-10-17T10:13:06.848Z,78.90
2022-10-17T10:15:35.178Z,78.80
2022-10-17T10:18:01.854Z,79.60
2022-10-17T10:20:35.778Z,81.90
2022-10-17T10:23:06.434Z,80.30
2022-10-17T10:25:33.538Z,79.90
2022-10-17T10:28:01.473Z,79.30
2022-10-17T10:30:30.156Z,79.50
2022-10-17T10:32:58.144Z,83.00
2022-10-17T10:35:35.634Z,83.90
2022-10-17T10:38:03.886Z,82.00
2022-10-17T10:40:37.282Z,80.10
2022-10-17T10:43:05.703Z,79.90
2022-10-17T10:45:47.338Z,80.00
2022-10-17T10:48:21.523Z,80.10
2022-10-17T10:51:05.346Z,81.60
2022-10-17T10:53:53.218Z,80.00
2022-10-17T10:56:19.865Z,80.90
2022-10-17T10:58:50.776Z,81.30
2022-10-17T11:01:21.067Z,79.40
2022-10-17T11:03:56.092Z,79.00
2022-10-17T11:06:24.642Z,79.80
2022-10-17T11:09:00.256Z,76.40
2022-10-17T11:11:34.463Z,76.90
2022-10-17T11:14:13.080Z,76.70
2022-10-17T11:16:44.857Z,75.70
2022-10-17T11:19:16.644Z,73.90
2022-10-17T11:21:59.126Z,74.90
2022-10-17T11:24:29.868Z,77.90
2022-10-17T11:27:04.045Z,73.90
2022-10-17T11:29:32.178Z,76.00
2022-10-17T11:32:02.165Z,74.60
2022-10-17T11:34:31.648Z,72.60
2022-10-17T11:37:08.004Z,72.30
2022-10-17T11:39:40.847Z,73.00
2022-10-17T11:42:12.016Z,72.60
2022-10-17T11:44:42.418Z,73.10
2022-10-17T11:47:14.894Z,72.30
2022-10-17T11:49:46.955Z,73.30
2022-10-17T11:55:21.913Z,72.90
2022-10-17T11:57:48.484Z,69.60
2022-10-17T12:00:24.363Z,71.10
2022-10-17T12:03:03.287Z,70.60
2022-10-17T12:05:48.628Z,71.40
2022-10-17T12:08:18.207Z,70.70
2022-10-17T12:10:47.400Z,70.80
2022-10-17T12:13:29.790Z,72.10
2022-10-17T12:15:57.126Z,71.90
2022-10-17T12:18:25.387Z,69.20
2022-10-17T12:20:56.603Z,71.20
2022-10-17T12:23:32.535Z,70.60
2022-10-17T12:26:04.713Z,70.50
2022-10-17T12:28:33.697Z,70.40
2022-10-17T12:31:03.386Z,68.50
2022-10-17T12:33:29.979Z,70.00
2022-10-17T12:36:15.454Z,70.70
2022-10-17T12:38:42.053Z,70.00
2022-10-17T12:41:08.709Z,69.70
2022-10-17T12:43:45.930Z,69.10
2022-10-17T12:46:12.879Z,70.10
2022-10-17T12:48:39.531Z,68.90
2022-10-17T12:54:01.800Z,70.30
2022-10-17T12:56:36.520Z,68.30
2022-10-17T12:59:07.768Z,66.00
2022-10-17T13:01:36.627Z,64.40
2022-10-17T13:04:05.849Z,63.20
2022-10-17T13:06:39.942Z,62.90
2022-10-17T13:09:18.650Z,67.10
2022-10-17T13:11:45.406Z,62.80
2022-10-17T13:14:13.652Z,62.80
2022-10-17T13:16:41.840Z,64.20
2022-10-17T13:19:15.759Z,63.90
2022-10-17T13:21:55.959Z,65.50
2022-10-17T13:24:30.327Z,64.90
2022-10-17T13:26:57.049Z,65.40
2022-10-17T13:29:25.742Z,66.80
2022-10-17T13:31:54.127Z,66.30
2022-10-17T13:34:22.011Z,66.60
2022-10-17T13:36:50.587Z,66.60
2022-10-17T13:39:23.057Z,66.60
2022-10-17T13:41:55.907Z,65.10
2022-10-17T13:44:26.806Z,64.80
2022-10-17T13:46:53.484Z,66.90
2022-10-17T13:49:21.414Z,63.10
2022-10-17T13:51:51.821Z,61.20
2022-10-17T13:54:35.793Z,61.50
2022-10-17T13:57:03.629Z,61.80
2022-10-17T13:59:34.169Z,62.30
2022-10-17T14:02:01.984Z,63.70
2022-10-17T14:04:36.110Z,63.50
2022-10-17T14:07:24.441Z,63.40
2022-10-17T14:09:51.244Z,65.20
2022-10-17T14:12:19.126Z,64.00
2022-10-17T14:17:38.505Z,63.60
2022-10-17T14:20:26.616Z,64.20
2022-10-17T14:23:20.922Z,64.20
2022-10-17T14:25:40.223Z,64.20
2022-10-17T14:28:15.559Z,64.70
2022-10-17T14:31:01.424Z,66.70
2022-10-17T14:33:31.855Z,65.90
2022-10-17T14:35:59.470Z,65.80
2022-10-17T14:38:26.408Z,66.20
2022-10-17T14:41:22.060Z,66.20
2022-10-17T14:43:52.377Z,66.60
2022-10-17T14:46:19.027Z,66.90
2022-10-17T14:48:47.669Z,66.40
2022-10-17T14:51:18.506Z,66.80
2022-10-17T14:54:02.939Z,68.40
2022-10-17T14:56:36.718Z,68.70
2022-10-17T14:59:07.558Z,67.80
2022-10-17T15:01:37.767Z,68.50
2022-10-17T15:04:04.471Z,67.80
2022-10-17T15:06:33.259Z,67.90
2022-10-17T15:08:59.872Z,68.20
2022-10-17T15:11:26.500Z,68.90
2022-10-17T15:13:53.120Z,68.90
2022-10-17T15:16:27.083Z,69.90
2022-10-17T15:18:53.940Z,71.10
2022-10-17T15:21:26.683Z,70.00
2022-10-17T15:24:04.786Z,70.30
2022-10-17T15:26:32.496Z,70.00
2022-10-17T15:31:33.864Z,71.70
2022-10-17T15:34:00.481Z,73.70
2022-10-17T15:36:28.731Z,73.90
2022-10-17T15:38:57.827Z,75.40
2022-10-17T15:41:25.571Z,75.50
2022-10-17T15:43:52.293Z,76.50
2022-10-17T15:46:21.198Z,77.50
2022-10-17T15:48:48.017Z,78.90
2022-10-17T15:51:14.652Z,80.20
2022-10-17T15:53:41.384Z,81.00
2022-10-17T15:56:08.770Z,81.40
2022-10-17T15:58:37.994Z,81.70
2022-10-17T16:01:05.334Z,83.70
2022-10-17T16:03:33.940Z,84.70
2022-10-17T16:06:00.594Z,85.80
2022-10-17T16:08:28.231Z,86.80
2022-10-17T16:10:54.899Z,88.30
2022-10-17T16:13:22.952Z,90.00
2022-10-17T16:15:49.588Z,90.40
2022-10-17T16:18:16.161Z,90.90
2022-10-17T16:20:42.863Z,91.50
2022-10-17T16:23:10.615Z,92.00
2022-10-17T16:25:37.324Z,92.40
2022-10-17T16:28:04.399Z,92.80
2022-10-17T16:30:31.641Z,93.70
2022-10-17T16:32:58.296Z,95.30
2022-10-17T16:35:26.962Z,95.90
2022-10-17T16:37:53.650Z,96.70
2022-10-17T16:40:20.351Z,97.40
2022-10-17T16:42:47.018Z,98.60
2022-10-17T16:45:20.699Z,99.80
2022-10-17T16:47:47.788Z,99.90
2022-10-17T16:50:14.734Z,99.90
2022-10-17T16:52:41.763Z,99.90
2022-10-17T16:55:08.650Z,99.90
2022-10-17T16:57:35.363Z,99.90
2022-10-17T17:00:02.127Z,99.90
2022-10-17T17:02:28.928Z,99.90
2022-10-17T17:04:55.649Z,99.90
2022-10-17T17:07:24.104Z,99.90
2022-10-17T17:09:50.817Z,99.90
2022-10-17T17:12:17.442Z,99.90
2022-10-17T17:14:44.219Z,99.90
2022-10-17T17:17:19.434Z,99.90
2022-10-17T17:19:57.088Z,99.90
2022-10-17T17:22:23.759Z,99.90
2022-10-17T17:24:50.486Z,99.90
2022-10-17T17:27:17.249Z,99.90
2022-10-17T17:29:43.972Z,99.90
2022-10-17T17:32:10.983Z,99.90
2022-10-17T17:34:37.629Z,99.90
2022-10-17T17:37:04.335Z,99.90
2022-10-17T17:39:30.960Z,99.90
2022-10-17T17:41:57.624Z,99.90
2022-10-17T17:44:24.293Z,99.90
2022-10-17T17:46:50.956Z,99.90
2022-10-17T17:49:17.547Z,99.90
2022-10-17T17:51:46.502Z,99.90
2022-10-17T17:54:13.392Z,99.90
2022-10-17T17:56:40.230Z,99.90
2022-10-17T17:59:06.885Z,99.90
2022-10-17T18:01:38.579Z,99.90
2022-10-17T18:04:06.858Z,99.90
2022-10-17T18:06:33.558Z,99.90
2022-10-17T18:09:01.274Z,99.90
2022-10-17T18:11:28.428Z,99.90
2022-10-17T18:13:56.393Z,99.90
2022-10-17T18:16:23.129Z,99.90
2022-10-17T18:18:49.747Z,99.90
2022-10-17T18:21:16.391Z,99.90
2022-10-17T18:23:45.010Z,99.90
2022-10-17T18:26:12.003Z,99.90
2022-10-17T18:28:39.501Z,99.90
2022-10-17T18:31:06.543Z,99.90
2022-10-17T18:33:33.285Z,99.90
2022-10-17T18:36:07.316Z,99.90
2022-10-17T18:38:34.057Z,99.90
2022-10-17T18:41:27.230Z,99.90
2022-10-17T18:43:54.666Z,99.90
2022-10-17T18:46:22.468Z,99.90
2022-10-17T18:48:49.647Z,99.90
2022-10-17T18:51:17.532Z,99.90
2022-10-17T18:53:45.026Z,99.90
2022-10-17T18:56:12.059Z,99.90
2022-10-17T18:58:39.159Z,99.90
2022-10-17T19:01:07.805Z,99.90
2022-10-17T19:03:34.441Z,99.90
2022-10-17T19:06:08.005Z,99.90
2022-10-17T19:08:35.065Z,99.90
2022-10-17T19:11:08.788Z,99.90
2022-10-17T19:13:35.807Z,99.90
2022-10-17T19:16:06.833Z,99.90
2022-10-17T19:18:33.989Z,99.90
2022-10-17T19:21:04.385Z,99.90
2022-10-17T19:23:31.067Z,99.90
2022-10-17T19:26:05.516Z,99.90
2022-10-17T19:28:32.585Z,99.90
2022-10-17T19:30:59.304Z,99.90
2022-10-17T19:33:26.202Z,99.90
2022-10-17T19:35:56.932Z,99.90
2022-10-17T19:38:23.671Z,99.90
2022-10-17T19:40:50.497Z,99.90
2022-10-17T19:43:17.646Z,99.90
2022-10-17T19:45:44.296Z,99.90
2022-10-17T19:48:10.872Z,99.90
2022-10-17T19:50:39.186Z,99.90
2022-10-17T19:53:08.063Z,99.90
2022-10-17T19:55:34.680Z,99.90
2022-10-17T19:58:02.651Z,99.90
2022-10-17T20:00:29.330Z,99.90
2022-10-17T20:02:55.894Z,99.90
2022-10-17T20:05:25.917Z,99.90
2022-10-17T20:07:54.242Z,99.90
2022-10-17T20:10:21.217Z,99.90
2022-10-17T20:12:48.154Z,99.90
2022-10-17T20:15:14.799Z,99.90
2022-10-17T20:17:41.385Z,99.90
2022-10-17T20:20:08.883Z,99.90
2022-10-17T20:22:35.688Z,99.90
2022-10-17T20:25:02.258Z,99.90
2022-10-17T20:27:28.991Z,99.90
2022-10-17T20:29:55.600Z,99.90
2022-10-17T20:32:22.201Z,99.90
2022-10-17T20:34:48.815Z,99.90
2022-10-17T20:37:15.412Z,99.90
2022-10-17T20:39:42.614Z,99.90
2022-10-17T20:42:09.231Z,99.90
2022-10-17T20:44:35.873Z,99.90
2022-10-17T20:47:02.935Z,99.90
2022-10-17T20:49:30.487Z,99.90
2022-10-17T20:51:57.431Z,99.90
2022-10-17T20:54:24.358Z,99.90
2022-10-17T20:56:51.148Z,99.90
2022-10-17T20:59:17.970Z,99.90
2022-10-17T21:01:45.313Z,99.90
2022-10-17T21:06:59.005Z,99.90
2022-10-17T21:09:25.589Z,99.90
2022-10-17T21:11:55.083Z,99.90
2022-10-17T21:14:22.424Z,99.90
2022-10-17T21:16:49.035Z,99.90
2022-10-17T21:19:15.995Z,99.90
2022-10-17T21:21:44.206Z,99.90
2022-10-17T21:24:14.715Z,99.90
2022-10-17T21:26:42.124Z,99.90
2022-10-17T21:31:37.327Z,99.90
2022-10-17T21:34:07.908Z,99.90
2022-10-17T21:36:34.554Z,99.90
2022-10-17T21:39:01.276Z,99.90
2022-10-17T21:41:29.142Z,99.90
2022-10-17T21:43:57.768Z,99.90
2022-10-17T21:46:24.387Z,99.90
2022-10-17T21:48:51.860Z,99.90
2022-10-17T21:51:19.937Z,99.90
2022-10-17T21:53:46.851Z,99.90
2022-10-17T21:56:14.768Z,99.90
2022-10-17T21:58:41.847Z,99.90
2022-10-17T22:01:10.706Z,99.90
2022-10-17T22:03:41.403Z,99.90
2022-10-17T22:06:38.620Z,99.90
2022-10-17T22:08:58.582Z,99.90
2022-10-17T22:11:26.668Z,99.90
2022-10-17T22:13:57.687Z,99.90
2022-10-17T22:16:24.322Z,99.90
2022-10-17T22:18:51.235Z,99.90
2022-10-17T22:21:19.577Z,99.90
2022-10-17T22:23:47.422Z,99.90
2022-10-17T22:26:14.326Z,99.90
2022-10-17T22:28:41.460Z,99.90
2022-10-17T22:31:08.451Z,99.90
2022-10-17T22:33:35.777Z,99.90
2022-10-17T22:36:02.688Z,99.90
2022-10-17T22:38:29.520Z,99.90
2022-10-17T22:40:56.206Z,99.90
2022-10-17T22:43:22.879Z,99.90
2022-10-17T22:45:53.469Z,99.90
2022-10-17T22:48:20.527Z,99.90
2022-10-17T22:50:50.607Z,99.90
2022-10-17T22:53:25.846Z,99.90
2022-10-17T22:55:53.401Z,99.90
2022-10-17T22:58:20.650Z,99.90
2022-10-17T23:00:48.055Z,99.90
2022-10-17T23:03:14.834Z,99.90
2022-10-17T23:05:41.428Z,99.90
2022-10-17T23:08:08.096Z,99.90
2022-10-17T23:10:34.891Z,99.90
2022-10-17T23:13:01.569Z,99.90
2022-10-17T23:15:28.170Z,99.90
2022-10-17T23:17:54.762Z,99.90
2022-10-17T23:20:21.467Z,99.90
2022-10-17T23:22:48.081Z,99.90
2022-10-17T23:25:14.739Z,99.90
2022-10-17T23:27:41.370Z,99.90
2022-10-17T23:30:08.198Z,99.90
2022-10-17T23:32:34.828Z,99.90
2022-10-17T23:35:01.466Z,99.90
2022-10-17T23:37:28.415Z,99.90
2022-10-17T23:39:55.295Z,99.90
2022-10-17T23:42:21.892Z,99.90
2022-10-17T23:44:48.499Z,99.90
2022-10-17T23:47:15.091Z,99.90
2022-10-17T23:49:41.729Z,99.90
2022-10-17T23:52:08.356Z,99.90
2022-10-17T23:54:35.021Z,99.90
2022-10-17T23:57:01.687Z,99.90
2022-10-17T23:59:28.292Z,99.90
